Time;durP1;ratioP1;P1;durP2;ratioP2;P2;SDS_P1;SDS_P2;PMS_P1;PMS_P2;Temp;Humidity;BMP_temperature;BMP_pressure;BME280_temperature;BME280_humidity;BME280_pressure;Samples;Min_cycle;Max_cycle;Signal;HPM_P1;HPM_P2
2022/12/26 00:10:16;;;;;;;4.80;1.77;;;;;;;13.12;71.70;100051.44;10450960;23;20064;-90
2022/12/26 00:15:18;;;;;;;6.75;2.05;;;;;;;13.16;71.70;100047.28;10416315;28;20045;-90
2022/12/26 00:20:21;;;;;;;5.75;2.45;;;;;;;13.22;71.39;100045.66;10421863;28;20048;-90
2022/12/26 00:25:22;;;;;;;4.47;2.38;;;;;;;13.23;71.07;100050.88;10429116;28;20060;-90
2022/12/26 00:30:24;;;;;;;5.47;1.70;;;;;;;13.13;71.65;100041.47;10421768;28;20045;-90
2022/12/26 00:35:28;;;;;;;5.13;2.33;;;;;;;13.16;71.35;100035.69;10415299;28;20144;-89
2022/12/26 00:40:29;;;;;;;4.82;2.53;;;;;;;13.14;71.18;100033.16;10452834;28;20064;-89
2022/12/26 00:45:32;;;;;;;5.00;2.90;;;;;;;13.07;71.40;100038.53;10437622;28;20134;-90
2022/12/26 00:50:33;;;;;;;3.00;2.00;;;;;;;13.00;71.27;100045.75;10442147;28;20069;-89
2022/12/26 00:55:35;;;;;;;5.70;2.63;;;;;;;12.90;71.46;100042.59;10419816;28;20080;-89
2022/12/26 01:00:39;;;;;;;5.85;2.58;;;;;;;12.87;71.53;100041.13;10426364;28;20077;-91
2022/12/26 01:05:50;;;;;;;4.65;2.30;;;;;;;12.91;71.53;100036.16;10426735;28;20075;-90
2022/12/26 01:10:52;;;;;;;3.42;2.13;;;;;;;12.94;71.49;100043.88;10420009;28;20104;-91
2022/12/26 01:15:53;;;;;;;3.53;1.92;;;;;;;12.97;71.45;100062.34;10426039;28;20049;-91
2022/12/26 01:21:05;;;;;;;5.25;2.25;;;;;;;12.86;71.36;100058.34;10427099;28;20132;-90
2022/12/26 01:26:06;;;;;;;4.18;2.25;;;;;;;12.89;71.23;100068.75;10423837;28;20144;-90
2022/12/26 01:31:29;;;;;;;4.20;1.77;;;;;;;12.93;71.23;100060.25;10442310;28;20056;-90
2022/12/26 01:36:30;;;;;;;6.60;2.58;;;;;;;13.03;71.20;100039.97;10410313;28;20644;-90
2022/12/26 01:41:39;;;;;;;4.70;1.58;;;;;;;13.08;70.91;100047.47;10435657;28;20526;-90
2022/12/26 01:46:46;;;;;;;3.85;1.80;;;;;;;13.09;71.01;100073.41;10433394;28;20048;-90
2022/12/26 01:51:54;;;;;;;10.88;2.10;;;;;;;13.13;70.52;100073.84;10436575;28;20064;-90
2022/12/26 01:56:56;;;;;;;6.57;2.35;;;;;;;13.15;70.49;100061.84;10437615;28;20060;-90
2022/12/26 02:01:59;;;;;;;2.05;1.35;;;;;;;13.15;70.50;100086.13;10426632;28;20041;-90
2022/12/26 02:07:03;;;;;;;4.53;1.42;;;;;;;13.19;70.16;100081.13;10444651;28;20053;-91
2022/12/26 02:12:31;;;;;;;3.80;1.42;;;;;;;13.29;69.84;100095.97;10444604;28;20051;-90
2022/12/26 02:17:38;;;;;;;3.50;1.48;;;;;;;13.33;70.06;100090.16;10427566;28;20377;-90
2022/12/26 02:23:26;;;;;;;3.95;1.38;;;;;;;13.38;69.82;100101.22;10419621;28;20102;-90
2022/12/26 02:29:02;;;;;;;3.33;1.55;;;;;;;13.46;69.79;100095.63;10455171;28;20495;-90
2022/12/26 02:34:25;;;;;;;3.17;1.08;;;;;;;13.52;69.61;100102.94;10439390;28;20055;-90
2022/12/26 02:39:42;;;;;;;2.78;1.30;;;;;;;13.52;69.06;100104.81;10438891;28;20107;-89
2022/12/26 03:17:43;;;;;;;4.80;1.38;;;;;;;13.72;68.50;100107.56;10441388;28;20064;-90
2022/12/26 03:22:53;;;;;;;5.47;1.77;;;;;;;13.65;68.36;100097.59;10425028;28;20411;-89
2022/12/26 03:27:55;;;;;;;6.55;1.73;;;;;;;13.58;68.66;100094.00;10429836;28;20071;-90
2022/12/26 03:32:57;;;;;;;2.15;1.23;;;;;;;13.50;68.93;100102.28;10458656;28;20060;-90
2022/12/26 03:38:08;;;;;;;3.53;1.48;;;;;;;13.42;69.08;100102.47;10423068;28;20049;-89
2022/12/26 04:44:08;;;;;;;6.07;1.85;;;;;;;12.65;70.38;100112.34;10415900;28;20053;-88
2022/12/26 04:54:32;;;;;;;3.85;1.92;;;;;;;12.62;70.36;100110.06;10413857;28;20084;-89
2022/12/26 04:59:34;;;;;;;4.03;1.55;;;;;;;12.61;70.99;100103.81;10414927;28;20041;-89
2022/12/26 05:09:56;;;;;;;2.38;1.48;;;;;;;12.70;71.05;100074.84;10416148;28;20207;-89
2022/12/26 05:14:57;;;;;;;3.42;1.80;;;;;;;12.79;71.00;100060.16;10380906;28;20065;-89
2022/12/26 05:30:44;;;;;;;4.32;1.50;;;;;;;12.83;70.89;100090.28;10412941;28;20045;-89
2022/12/26 05:35:45;;;;;;;3.45;1.63;;;;;;;12.89;70.52;100092.19;10407454;28;20057;-90
2022/12/26 05:40:47;;;;;;;3.30;1.02;;;;;;;13.00;70.66;100088.94;10412180;28;20053;-89
2022/12/26 05:45:48;;;;;;;3.65;1.10;;;;;;;13.10;70.18;100100.19;10394582;28;20069;-89
2022/12/26 05:50:50;;;;;;;6.20;1.17;;;;;;;13.21;70.25;100115.03;10396117;28;20072;-89
2022/12/26 05:55:51;;;;;;;2.10;0.80;;;;;;;13.33;69.86;100109.06;10402871;28;20109;-90
2022/12/26 06:01:03;;;;;;;3.47;1.20;;;;;;;13.44;69.52;100130.09;10401072;28;20565;-90
2022/12/26 06:06:08;;;;;;;2.47;0.85;;;;;;;13.56;69.48;100109.59;10403340;28;20053;-89
2022/12/26 06:11:11;;;;;;;2.17;1.40;;;;;;;13.64;68.87;100114.81;10428685;28;20061;-89
2022/12/26 06:16:15;;;;;;;3.55;0.90;;;;;;;13.68;69.03;100124.22;10429501;28;20269;-89
2022/12/26 06:21:18;;;;;;;2.97;1.02;;;;;;;13.72;68.81;100123.78;10426481;28;20045;-89
2022/12/26 06:26:20;;;;;;;1.67;0.60;;;;;;;13.74;68.75;100140.63;10430837;28;20073;-89
2022/12/26 06:31:23;;;;;;;7.57;1.25;;;;;;;13.76;68.61;100138.56;10430547;28;20045;-90
2022/12/26 06:36:26;;;;;;;5.20;1.20;;;;;;;13.75;68.82;100147.72;10432015;28;20045;-90
2022/12/26 06:41:28;;;;;;;3.10;1.00;;;;;;;13.73;68.65;100161.41;10429925;28;20052;-90
2022/12/26 06:46:30;;;;;;;4.18;1.25;;;;;;;13.75;68.54;100143.13;10451616;28;20127;-89
2022/12/26 06:51:32;;;;;;;2.10;1.10;;;;;;;13.71;68.47;100141.88;10458458;28;20045;-89
2022/12/26 06:56:34;;;;;;;2.58;1.73;;;;;;;13.75;68.56;100147.72;10427377;28;20060;-89
2022/12/26 07:01:35;;;;;;;3.70;0.98;;;;;;;13.71;68.28;100135.63;10461140;28;20072;-90
2022/12/26 07:06:38;;;;;;;4.05;2.10;;;;;;;13.72;68.61;100132.72;10436602;28;20699;-90
2022/12/26 07:11:42;;;;;;;5.00;1.00;;;;;;;13.75;68.54;100145.00;10405476;28;20049;-90
2022/12/26 07:16:44;;;;;;;4.78;1.27;;;;;;;13.79;68.10;100146.25;10387058;28;20131;-89
2022/12/26 07:21:46;;;;;;;2.05;1.10;;;;;;;13.80;68.03;100137.97;10401507;28;20071;-87
2022/12/26 07:26:48;;;;;;;5.22;1.30;;;;;;;13.86;68.06;100156.06;10396979;28;20049;-87
2022/12/26 07:31:50;;;;;;;2.60;1.08;;;;;;;13.77;68.37;100164.53;10394431;28;20033;-86
2022/12/26 07:36:52;;;;;;;3.17;1.50;;;;;;;13.46;69.69;100184.75;10391534;28;20132;-86
2022/12/26 07:41:56;;;;;;;4.35;1.52;;;;;;;12.87;71.64;100186.81;10393635;28;20077;-86
2022/12/26 07:46:58;;;;;;;4.03;1.95;;;;;;;12.67;72.33;100197.41;10377101;28;20046;-86
2022/12/26 07:52:01;;;;;;;3.65;1.73;;;;;;;12.46;72.83;100206.34;10394249;28;20053;-86
2022/12/26 07:57:02;;;;;;;6.57;2.13;;;;;;;12.17;73.89;100231.53;10396916;28;20045;-89
2022/12/26 08:02:24;;;;;;;4.25;2.22;;;;;;;11.96;75.48;100231.47;10387079;28;20072;-88
2022/12/26 08:07:26;;;;;;;4.20;2.03;;;;;;;11.84;75.75;100244.56;10412093;28;20057;-87
2022/12/26 08:12:27;;;;;;;7.60;3.03;;;;;;;11.63;77.09;100218.38;10413398;28;20041;-86
2022/12/26 08:17:31;;;;;;;6.32;2.40;;;;;;;11.79;76.84;100210.13;10379313;28;20045;-88
2022/12/26 08:22:33;;;;;;;8.43;3.30;;;;;;;11.83;77.18;100194.41;10397281;28;20061;-86
2022/12/26 08:27:34;;;;;;;8.38;3.42;;;;;;;12.08;76.75;100181.47;10377854;28;20053;-88
2022/12/26 08:32:36;;;;;;;6.15;3.00;;;;;;;12.20;76.78;100174.53;10395269;28;20045;-89
2022/12/26 08:37:42;;;;;;;9.60;3.50;;;;;;;12.07;77.37;100204.06;10395148;28;20080;-89
2022/12/26 08:42:44;;;;;;;6.22;3.10;;;;;;;12.17;77.20;100183.03;10394290;28;20045;-86
2022/12/26 08:48:05;;;;;;;10.30;4.25;;;;;;;12.26;77.00;100189.97;10376783;28;20156;-88
2022/12/26 08:53:07;;;;;;;9.05;3.63;;;;;;;12.15;77.61;100222.81;10394858;28;20099;-87
2022/12/26 08:58:08;;;;;;;9.25;2.35;;;;;;;12.00;78.46;100222.81;10394236;28;20057;-87
2022/12/26 09:03:10;;;;;;;6.72;2.33;;;;;;;11.93;78.87;100253.38;10395526;28;20099;-87
2022/12/26 09:08:12;;;;;;;7.70;2.53;;;;;;;11.98;78.75;100249.13;10395766;28;20057;-87
2022/12/26 09:13:13;;;;;;;7.85;2.30;;;;;;;12.06;78.51;100256.25;10382127;28;20107;-87
2022/12/26 09:18:17;;;;;;;5.78;2.90;;;;;;;12.05;78.45;100244.66;10391134;28;20107;-88
2022/12/26 09:23:18;;;;;;;12.50;2.65;;;;;;;11.98;79.17;100256.38;10390473;28;20057;-87
2022/12/26 09:28:20;;;;;;;7.43;2.22;;;;;;;11.91;79.38;100291.31;10368265;28;20111;-87
2022/12/26 09:33:21;;;;;;;4.63;2.40;;;;;;;11.86;79.96;100275.66;10379428;28;20199;-87
2022/12/26 09:38:30;;;;;;;5.35;2.72;;;;;;;11.94;79.62;100263.16;10398882;28;20045;-88
2022/12/26 09:44:02;;;;;;;5.60;2.58;;;;;;;11.96;79.63;100288.88;10386263;28;20480;-88
2022/12/26 09:49:08;;;;;;;6.60;2.75;;;;;;;12.05;79.45;100268.91;10367782;28;20132;-88
2022/12/26 09:54:23;;;;;;;8.18;2.55;;;;;;;12.06;79.93;100262.47;10396026;28;20053;-88
2022/12/26 09:59:26;;;;;;;7.65;2.88;;;;;;;12.17;79.37;100284.59;10405079;28;20057;-88
2022/12/26 10:04:31;;;;;;;6.47;2.45;;;;;;;12.17;79.88;100308.84;10389052;28;20084;-87
2022/12/26 10:09:57;;;;;;;2.25;2.00;;;;;;;12.23;79.66;100275.75;10429477;28;20399;-88
2022/12/26 10:15:28;;;;;;;7.85;2.38;;;;;;;12.27;79.86;100288.66;10418886;28;20041;-88
2022/12/26 10:20:32;;;;;;;6.43;1.80;;;;;;;12.26;79.93;100264.59;10441875;28;20132;-87
2022/12/26 10:25:49;;;;;;;5.33;1.83;;;;;;;12.38;79.39;100281.09;10428236;28;20136;-88
2022/12/26 10:30:53;;;;;;;4.10;1.55;;;;;;;12.40;79.51;100262.88;10423584;28;20045;-87
2022/12/26 10:35:58;;;;;;;5.88;2.15;;;;;;;12.46;79.21;100286.38;10437301;28;20112;-86
2022/12/26 10:41:08;;;;;;;5.72;1.33;;;;;;;12.49;79.84;100294.91;10424589;28;20096;-87
2022/12/26 10:46:22;;;;;;;3.28;1.30;;;;;;;12.53;79.39;100292.69;10442382;28;20572;-87
2022/12/26 10:51:24;;;;;;;1.98;1.15;;;;;;;12.57;79.51;100285.88;10444801;28;20044;-87
2022/12/26 10:56:26;;;;;;;4.32;1.20;;;;;;;12.62;79.03;100291.56;10428909;28;20164;-87
2022/12/26 11:01:36;;;;;;;2.67;1.13;;;;;;;12.70;79.03;100280.66;10440953;28;20110;-88
2022/12/26 11:06:40;;;;;;;2.25;1.33;;;;;;;12.74;78.95;100299.13;10437946;28;20143;-88
2022/12/26 11:11:50;;;;;;;2.08;0.90;;;;;;;12.77;78.98;100302.28;10410546;28;20046;-87
2022/12/26 11:16:52;;;;;;;2.80;1.15;;;;;;;12.86;78.70;100295.75;10411061;28;20075;-87
2022/12/26 11:21:53;;;;;;;1.52;1.00;;;;;;;12.94;78.26;100293.97;10388429;28;20064;-91
2022/12/26 11:27:16;;;;;;;1.90;0.60;;;;;;;12.99;78.07;100307.69;10407589;28;20487;-91
2022/12/26 11:32:19;;;;;;;1.35;0.50;;;;;;;13.01;78.03;100290.28;10388445;28;20054;-90
2022/12/26 11:37:29;;;;;;;3.50;0.80;;;;;;;13.02;77.80;100300.03;10406757;28;20061;-90
2022/12/26 11:42:31;;;;;;;3.47;0.70;;;;;;;13.13;78.15;100295.16;10384201;28;20124;-89
2022/12/26 11:47:32;;;;;;;2.22;0.45;;;;;;;13.20;77.90;100296.06;10409395;28;20127;-90
2022/12/26 11:52:36;;;;;;;2.38;0.60;;;;;;;13.23;77.79;100293.81;10389058;28;20056;-91
2022/12/26 11:57:38;;;;;;;1.58;0.40;;;;;;;13.26;77.62;100304.19;10403919;28;20060;-90
2022/12/26 12:08:43;;;;;;;0.60;0.30;;;;;;;13.26;76.92;100298.78;10387232;23;20060;-91
2022/12/26 12:14:05;;;;;;;1.52;0.40;;;;;;;13.27;77.10;100300.47;10372066;28;20077;-90
2022/12/26 12:19:19;;;;;;;1.02;0.50;;;;;;;13.37;76.79;100294.78;10365124;28;20073;-91
2022/12/26 12:29:46;;;;;;;2.25;0.40;;;;;;;13.43;76.74;100268.88;11075364;23;20040;-89
2022/12/26 12:35:25;;;;;;;1.55;0.40;;;;;;;13.45;76.60;100253.28;10408097;28;20053;-89
2022/12/26 12:40:47;;;;;;;2.90;0.38;;;;;;;13.51;76.28;100251.66;10360078;28;20392;-88
2022/12/26 12:46:09;;;;;;;1.45;0.40;;;;;;;13.59;76.07;100265.84;10397810;28;20060;-87
2022/12/26 12:51:16;;;;;;;1.17;0.60;;;;;;;13.67;76.28;100273.78;10369315;28;20045;-89
2022/12/26 12:56:25;;;;;;;;;;;;;;;13.57;77.19;100276.03;10391185;28;20044;-90
2022/12/26 13:01:33;;;;;;;2.65;0.80;;;;;;;13.49;76.99;100285.09;10404181;28;19928;-92
2022/12/26 13:06:44;;;;;;;1.23;0.80;;;;;;;13.42;76.64;100284.22;10399565;28;20045;-91
2022/12/26 13:12:07;;;;;;;3.00;0.52;;;;;;;13.21;77.17;100293.16;10358685;28;20045;-91
2022/12/26 13:17:26;;;;;;;1.67;0.70;;;;;;;12.71;78.65;100289.56;10404101;28;20112;-89
2022/12/26 13:24:22;;;;;;;4.55;0.70;;;;;;;12.43;79.69;100282.22;10411628;28;20064;-91
2022/12/26 13:28:08;;;;;;;2.10;0.20;;;;;;;11.90;80.38;100282.38;10420614;28;20055;-89
2022/12/26 13:33:19;;;;;;;1.70;0.93;;;;;;;11.67;79.91;100295.91;10391588;28;20049;-91
2022/12/26 13:38:22;;;;;;;1.05;0.30;;;;;;;11.35;80.53;100282.78;10384106;28;20144;-89
2022/12/26 13:48:52;;;;;;;0.38;0.10;;;;;;;10.62;81.62;100274.25;10419527;22;20128;-63
2022/12/26 13:54:09;;;;;;;1.65;0.00;;;;;;;10.39;82.04;100247.38;10398619;28;20061;-62
2022/12/26 13:59:23;;;;;;;1.33;0.10;;;;;;;10.51;81.86;100248.66;10389018;28;20050;-63
2022/12/26 14:04:39;;;;;;;0.40;0.05;;;;;;;10.63;81.60;100265.19;10397515;28;20050;-64
2022/12/26 14:10:06;;;;;;;1.40;0.25;;;;;;;10.79;81.49;100265.06;10389881;28;20073;-63
2022/12/26 14:15:28;;;;;;;1.95;0.20;;;;;;;10.78;81.44;100241.06;10389864;28;20109;-64
2022/12/26 14:20:53;;;;;;;1.27;0.20;;;;;;;10.83;81.51;100260.19;10400872;28;20061;-64
2022/12/26 14:26:00;;;;;;;1.88;0.80;;;;;;;10.87;82.00;100259.63;10396404;28;20038;-65
2022/12/26 14:31:52;;;;;;;0.60;0.30;;;;;;;10.81;82.09;100278.34;10400790;28;20026;-64
2022/12/26 14:37:18;;;;;;;0.93;0.28;;;;;;;10.86;82.03;100270.56;10352710;28;20051;-63
2022/12/26 14:47:47;;;;;;;0.93;0.20;;;;;;;10.62;82.99;100287.72;10397017;28;20034;-62
2022/12/26 14:52:49;;;;;;;1.98;0.50;;;;;;;10.60;83.30;100278.97;10398636;28;20050;-63
2022/12/26 14:57:52;;;;;;;1.48;0.10;;;;;;;10.64;83.24;100261.47;10395928;28;20072;-62
2022/12/26 15:03:00;;;;;;;0.43;0.22;;;;;;;10.70;83.02;100264.31;10398631;28;20038;-62
2022/12/26 15:08:20;;;;;;;4.00;1.10;;;;;;;10.71;83.10;100274.03;10394232;28;20050;-61
2022/12/26 15:13:58;;;;;;;2.20;0.10;;;;;;;10.68;82.72;100271.72;10393741;28;20041;-62
2022/12/26 15:19:33;;;;;;;1.75;0.20;;;;;;;10.66;83.02;100289.03;10392169;28;20037;-62
2022/12/26 15:24:56;;;;;;;2.97;0.22;;;;;;;10.73;83.14;100295.38;10396056;28;20044;-62
2022/12/26 15:30:41;;;;;;;5.03;0.20;;;;;;;10.71;83.35;100297.41;10393390;28;20078;-62
2022/12/26 15:36:14;;;;;;;0.98;0.20;;;;;;;10.70;83.41;100301.09;10379841;28;20054;-63
2022/12/26 15:41:55;;;;;;;1.33;0.20;;;;;;;10.64;83.63;100283.84;10361397;28;20038;-64
2022/12/26 15:47:13;;;;;;;1.00;0.40;;;;;;;10.73;83.26;100278.41;10399203;23;20146;-85
2022/12/26 15:52:53;;;;;;;;;;;;;;;10.75;83.45;100284.44;10345934;28;20046;-87
2022/12/26 15:58:04;;;;;;;0.32;0.13;;;;;;;10.81;82.84;100270.28;10224151;28;19929;-86
2022/12/26 16:03:28;;;;;;;2.00;0.57;;;;;;;10.85;82.57;100268.91;10343000;28;20054;-86
2022/12/26 16:08:57;;;;;;;3.67;0.30;;;;;;;10.84;82.83;100280.66;10352460;28;20510;-86
2022/12/26 16:14:02;;;;;;;1.10;0.30;;;;;;;10.91;82.38;100279.75;10348633;28;20463;-86
2022/12/26 16:19:29;;;;;;;1.13;0.28;;;;;;;10.86;82.53;100303.69;10348094;28;20049;-86
2022/12/26 16:24:34;;;;;;;1.95;0.60;;;;;;;10.89;82.30;100319.44;10348709;28;20053;-86
2022/12/26 16:29:46;;;;;;;2.15;0.40;;;;;;;10.94;82.01;100350.34;10366318;28;20137;-89
2022/12/26 16:34:51;;;;;;;1.45;0.40;;;;;;;10.97;81.98;100344.63;10365311;28;20064;-91
2022/12/26 16:40:18;;;;;;;1.92;0.57;;;;;;;10.93;81.97;100346.00;10337150;28;20053;-90
2022/12/26 16:45:26;;;;;;;4.87;0.43;;;;;;;10.83;82.09;100351.59;10355099;28;20053;-89
2022/12/26 16:50:31;;;;;;;0.85;0.20;;;;;;;10.71;82.33;100391.50;10322401;28;20118;-89
2022/12/26 16:55:38;;;;;;;0.82;0.20;;;;;;;10.51;82.82;100415.28;10303254;28;20142;-88
2022/12/26 17:01:13;;;;;;;0.55;0.20;;;;;;;10.39;83.22;100389.81;10317233;28;20142;-88
2022/12/26 17:06:37;;;;;;;1.75;0.20;;;;;;;10.34;83.32;100400.22;10313395;28;20046;-88
2022/12/26 17:12:01;;;;;;;2.65;0.30;;;;;;;10.34;83.21;100422.56;10298933;28;20416;-88
2022/12/26 17:18:02;;;;;;;1.20;0.25;;;;;;;10.31;82.94;100386.13;10318167;28;20054;-89
2022/12/26 17:23:33;;;;;;;2.35;0.52;;;;;;;10.29;82.84;100342.44;10269979;28;20039;-88
2022/12/26 17:28:36;;;;;;;1.35;0.20;;;;;;;10.16;82.91;100422.72;10320605;28;20058;-89
2022/12/26 17:33:39;;;;;;;0.77;0.10;;;;;;;10.17;82.75;100416.38;10310822;28;20053;-89
2022/12/26 17:38:48;;;;;;;0.20;0.17;;;;;;;10.14;82.39;100416.69;10328381;28;20448;-89
2022/12/26 17:43:51;;;;;;;4.15;0.50;;;;;;;10.24;81.99;100374.34;10322501;28;20058;-90
2022/12/26 17:48:52;;;;;;;0.22;0.10;;;;;;;10.35;81.66;100410.81;10302647;28;20065;-89
2022/12/26 17:53:54;;;;;;;0.70;0.10;;;;;;;10.20;82.08;100421.38;10269025;28;20049;-89
2022/12/26 17:58:55;;;;;;;0.68;0.10;;;;;;;10.17;82.05;100440.53;10297623;28;20564;-90
2022/12/26 18:03:57;;;;;;;2.55;0.20;;;;;;;10.28;81.88;100437.47;10267535;28;20046;-89
2022/12/26 18:08:58;;;;;;;0.45;0.28;;;;;;;10.36;81.57;100451.94;10285041;28;20046;-88
2022/12/26 18:14:02;;;;;;;3.30;0.20;;;;;;;10.34;81.62;100486.19;10264946;28;20050;-88
2022/12/26 18:19:04;;;;;;;0.40;0.20;;;;;;;10.29;81.79;100498.28;10280320;28;20061;-89
2022/12/26 18:24:05;;;;;;;0.40;0.20;;;;;;;10.11;82.25;100485.03;10269476;28;20110;-90
2022/12/26 18:29:09;;;;;;;0.50;0.20;;;;;;;10.12;82.03;100515.41;10271137;28;20110;-90
2022/12/26 18:34:13;;;;;;;3.15;0.47;;;;;;;10.02;82.37;100541.59;10272386;28;20054;-89
2022/12/26 18:39:15;;;;;;;0.38;0.20;;;;;;;9.82;82.41;100552.66;10284950;28;20061;-89
2022/12/26 18:44:19;;;;;;;1.58;0.20;;;;;;;9.45;81.75;100574.56;10268215;28;20063;-90
2022/12/26 18:49:21;;;;;;;0.50;0.20;;;;;;;9.25;81.47;100582.03;10313206;28;20400;-89
2022/12/26 18:54:37;;;;;;;2.72;0.30;;;;;;;9.24;81.49;100581.22;10315312;28;20579;-90
2022/12/26 18:59:39;;;;;;;2.38;0.43;;;;;;;9.19;81.40;100583.53;10316656;28;20046;-90
2022/12/26 19:04:41;;;;;;;3.63;0.40;;;;;;;9.13;81.18;100589.53;10308664;28;20050;-89
2022/12/26 19:09:44;;;;;;;0.80;0.30;;;;;;;9.02;80.98;100593.31;10328986;28;20054;-90
2022/12/26 19:14:46;;;;;;;0.63;0.22;;;;;;;9.05;81.29;100590.34;10318330;28;20057;-90
2022/12/26 19:19:48;;;;;;;0.98;0.47;;;;;;;9.04;80.71;100610.09;10334594;28;20055;-89
2022/12/26 19:24:49;;;;;;;1.75;0.40;;;;;;;8.95;80.42;100613.75;10306644;28;20053;-89
2022/12/26 19:29:51;;;;;;;1.05;0.40;;;;;;;8.91;80.58;100623.94;10309518;28;20068;-89
2022/12/26 19:34:54;;;;;;;2.97;0.40;;;;;;;9.12;79.17;100641.47;10311446;28;20049;-89
2022/12/26 19:39:59;;;;;;;1.17;0.82;;;;;;;8.98;79.52;100668.88;10316296;28;20129;-89
2022/12/26 19:45:08;;;;;;;4.32;0.77;;;;;;;9.04;79.64;100685.16;10311724;28;20137;-89
2022/12/26 19:50:11;;;;;;;3.28;0.75;;;;;;;9.07;79.53;100686.72;10309393;28;20061;-90
2022/12/26 19:55:12;;;;;;;1.10;0.40;;;;;;;9.23;78.94;100702.91;10310508;28;20106;-90
2022/12/26 20:00:14;;;;;;;3.22;0.80;;;;;;;9.26;78.92;100705.28;10303250;28;20050;-90
2022/12/26 20:05:16;;;;;;;3.80;0.85;;;;;;;9.06;79.26;100706.47;10305925;28;20047;-90
2022/12/26 20:10:18;;;;;;;2.75;0.65;;;;;;;8.92;78.84;100724.81;10312891;28;20185;-90
2022/12/26 20:15:22;;;;;;;3.55;0.80;;;;;;;8.86;78.32;100738.00;10331136;28;20106;-89
2022/12/26 20:20:24;;;;;;;2.78;0.82;;;;;;;8.85;77.96;100739.84;10326379;28;20524;-90
2022/12/26 20:25:26;;;;;;;5.03;1.05;;;;;;;8.83;77.75;100752.56;10307883;28;20058;-90
2022/12/26 20:30:28;;;;;;;1.23;0.50;;;;;;;8.73;77.56;100765.22;10325756;28;20069;-89
2022/12/26 20:35:30;;;;;;;5.60;0.90;;;;;;;8.66;77.41;100778.38;10308071;28;20050;-90
2022/12/26 20:40:32;;;;;;;3.47;0.95;;;;;;;8.70;77.18;100800.34;10326241;28;20064;-90
2022/12/26 20:45:36;;;;;;;4.03;0.50;;;;;;;8.72;77.15;100809.91;10305708;28;20054;-90
2022/12/26 20:50:38;;;;;;;2.33;0.57;;;;;;;8.76;77.56;100826.53;10314010;28;20072;-90
2022/12/26 20:55:40;;;;;;;2.17;0.60;;;;;;;8.85;77.45;100838.19;10294206;28;20140;-90
2022/12/26 21:00:43;;;;;;;2.95;0.60;;;;;;;8.87;77.33;100863.03;10306658;28;20038;-90
2022/12/26 21:05:45;;;;;;;4.25;1.10;;;;;;;8.84;76.92;100863.31;10328317;28;20065;-90
2022/12/26 21:10:47;;;;;;;4.45;0.98;;;;;;;8.87;77.04;100871.06;10321049;28;20030;-90
2022/12/26 21:15:48;;;;;;;7.72;1.52;;;;;;;8.90;76.69;100865.38;10295889;28;20097;-90
2022/12/26 21:20:50;;;;;;;2.95;0.88;;;;;;;8.98;76.82;100884.22;10303487;28;20050;-90
2022/12/26 21:25:56;;;;;;;3.10;1.50;;;;;;;8.75;76.61;100902.59;10322538;28;20085;-89
2022/12/26 21:30:58;;;;;;;5.13;1.45;;;;;;;8.63;75.10;100909.13;10335636;28;20054;-90
2022/12/26 21:36:00;;;;;;;4.05;1.38;;;;;;;8.54;72.40;100918.94;10306416;28;20057;-90
2022/12/26 21:41:06;;;;;;;0.60;0.60;;;;;;;8.36;69.81;100932.22;10367128;23;20045;-61
2022/12/26 21:46:12;;;;;;;5.35;0.88;;;;;;;8.28;68.53;100943.69;10388322;28;20050;-62
2022/12/26 21:51:14;;;;;;;1.90;0.45;;;;;;;8.26;68.62;100966.25;10371791;28;20114;-63
2022/12/26 21:56:16;;;;;;;2.63;0.70;;;;;;;8.14;68.04;100982.47;10378866;28;20061;-64
2022/12/26 22:01:22;;;;;;;6.70;0.82;;;;;;;7.97;67.79;100998.44;10382643;28;20046;-63
2022/12/26 22:06:24;;;;;;;3.05;0.40;;;;;;;7.81;66.31;101020.44;10386965;28;20043;-62
2022/12/26 22:16:45;;;;;;;3.00;1.08;;;;;;;7.64;67.31;101048.72;10386802;28;20049;-64
2022/12/26 22:21:47;;;;;;;3.15;0.55;;;;;;;7.56;68.85;101046.75;10386618;28;20068;-65
2022/12/26 22:26:48;;;;;;;4.18;1.48;;;;;;;7.52;68.62;101064.06;10391648;28;20050;-64
2022/12/26 22:31:49;;;;;;;5.53;1.63;;;;;;;7.47;68.41;101067.16;10396371;28;20053;-64
2022/12/26 22:36:54;;;;;;;1.05;0.40;;;;;;;7.32;69.09;101072.03;10372696;28;20050;-65
2022/12/26 22:41:56;;;;;;;2.70;0.50;;;;;;;7.26;69.18;101087.78;10360950;28;20050;-64
2022/12/26 22:47:02;;;;;;;6.28;0.98;;;;;;;7.26;69.18;101085.97;10352756;28;20533;-64
2022/12/26 22:52:04;;;;;;;7.78;0.93;;;;;;;7.18;68.45;101095.66;10358466;28;20058;-65
2022/12/26 22:57:06;;;;;;;2.83;0.65;;;;;;;7.12;68.85;101092.53;10357736;28;20054;-64
2022/12/26 23:02:08;;;;;;;2.17;0.43;;;;;;;7.12;69.05;101100.53;10354508;28;20046;-65
2022/12/26 23:07:13;;;;;;;5.65;0.50;;;;;;;7.15;68.82;101105.63;10350811;28;20126;-66
2022/12/26 23:22:57;;;;;;;2.35;0.38;;;;;;;7.19;69.72;101129.41;10348903;28;20042;-65
2022/12/26 23:33:19;;;;;;;5.20;0.70;;;;;;;7.11;69.69;101133.63;10349455;28;20030;-63
2022/12/26 23:38:21;;;;;;;2.55;0.65;;;;;;;7.03;69.63;101146.81;10351664;28;20090;-64
2022/12/26 23:43:22;;;;;;;1.42;0.20;;;;;;;7.02;70.14;101144.28;10353294;28;20058;-65
2022/12/26 23:48:23;;;;;;;0.68;0.30;;;;;;;6.83;70.10;101153.03;10351165;28;20046;-66
2022/12/26 23:53:25;;;;;;;1.17;0.40;;;;;;;6.74;69.96;101155.50;10347313;28;20047;-64
2022/12/26 23:58:27;;;;;;;0.75;0.32;;;;;;;6.73;70.06;101163.66;10354778;28;20107;-64
